Time;durP1;ratioP1;P1;durP2;ratioP2;P2;SDS_P1;SDS_P2;PMS_P1;PMS_P2;Temp;Humidity;BMP_temperature;BMP_pressure;BME280_temperature;BME280_humidity;BME280_pressure;Samples;Min_cycle;Max_cycle;Signal;HPM_P1;HPM_P2
2023/03/11 00:01:16;;;;;;;0.70;0.60;;;;;;;;;;5013864;28;20492;-81
2023/03/11 00:03:43;;;;;;;0.50;0.30;;;;;;;;;;5012530;28;20449;-80
2023/03/11 00:06:10;;;;;;;1.17;0.93;;;;;;;;;;5013690;28;21102;-81
2023/03/11 00:08:38;;;;;;;1.03;0.57;;;1.80;99.90;;;;;;5005311;28;20468;-80
2023/03/11 00:11:05;;;;;;;0.97;0.60;;;;;;;;;;5013591;28;20463;-79
2023/03/11 00:13:32;;;;;;;2.20;1.57;;;;;;;;;;5013708;28;20448;-80
2023/03/11 00:16:00;;;;;;;1.27;0.70;;;1.70;99.90;;;;;;5013394;28;20448;-78
2023/03/11 00:18:30;;;;;;;0.80;0.50;;;1.80;99.90;;;;;;5012398;28;20453;-83
2023/03/11 00:20:58;;;;;;;2.23;1.17;;;;;;;;;;5013500;28;20516;-81
2023/03/11 00:23:26;;;;;;;2.20;1.50;;;1.80;99.90;;;;;;5013481;28;21047;-79
2023/03/11 00:25:54;;;;;;;1.33;0.80;;;1.70;99.90;;;;;;5013100;28;20480;-81
2023/03/11 00:28:24;;;;;;;1.03;0.73;;;;;;;;;;5013440;28;20471;-78
2023/03/11 00:30:51;;;;;;;3.90;1.07;;;;;;;;;;5013456;28;20460;-81
2023/03/11 00:33:18;;;;;;;0.67;0.50;;;;;;;;;;5012244;28;20453;-82
2023/03/11 00:35:46;;;;;;;3.70;1.33;;;;;;;;;;5013247;28;20457;-79
2023/03/11 00:38:15;;;;;;;1.00;0.67;;;1.80;99.90;;;;;;5013298;28;20441;-81
2023/03/11 00:40:42;;;;;;;0.77;0.50;;;;;;;;;;5013424;28;20542;-84
2023/03/11 00:43:11;;;;;;;3.77;1.30;;;;;;;;;;5013316;28;20502;-80
2023/03/11 00:45:38;;;;;;;1.10;0.70;;;;;;;;;;5013564;28;20451;-80
2023/03/11 00:48:05;;;;;;;1.03;0.87;;;;;;;;;;5012185;28;20457;-81
2023/03/11 00:50:34;;;;;;;9.37;5.40;;;;;;;;;;5012327;28;20453;-83
2023/03/11 00:53:01;;;;;;;1.57;1.17;;;;;;;;;;5012415;28;20554;-92
2023/03/11 00:55:30;;;;;;;1.07;0.90;;;2.00;99.90;;;;;;5019160;28;20463;-93
2023/03/11 00:57:58;;;;;;;2.77;2.20;;;;;;;;;;5011295;28;20452;-79
2023/03/11 01:00:28;;;;;;;0.90;0.80;;;1.90;99.90;;;;;;5010391;28;20483;-79
2023/03/11 01:02:55;;;;;;;1.00;0.77;;;2.00;99.90;;;;;;5009010;28;20494;-80
2023/03/11 01:05:24;;;;;;;1.63;1.17;;;2.10;99.90;;;;;;5012692;28;20456;-79
2023/03/11 01:07:52;;;;;;;0.53;0.43;;;;;;;;;;5014881;28;20457;-80
2023/03/11 01:10:19;;;;;;;2.10;1.50;;;;;;;;;;5013259;28;20452;-79
2023/03/11 01:12:46;;;;;;;1.07;0.83;;;;;;;;;;5012575;28;20445;-79
2023/03/11 01:15:17;;;;;;;1.17;0.80;;;;;;;;;;5012590;28;20449;-80
2023/03/11 01:17:45;;;;;;;0.43;0.43;;;2.00;99.90;;;;;;5011355;28;20458;-80
2023/03/11 01:20:13;;;;;;;1.30;1.17;;;;;;;;;;5012557;28;20452;-80
2023/03/11 01:22:40;;;;;;;1.13;0.73;;;;;;;;;;5012271;28;20500;-81
2023/03/11 01:25:09;;;;;;;0.93;0.57;;;;;;;;;;5012519;28;20539;-81
2023/03/11 01:27:36;;;;;;;0.77;0.63;;;;;;;;;;5014423;28;20527;-78
2023/03/11 01:30:03;;;;;;;4.30;1.80;;;;;;;;;;5016296;28;20456;-79
2023/03/11 01:32:30;;;;;;;1.57;1.17;;;;;;;;;;5014788;28;20448;-80
2023/03/11 01:34:59;;;;;;;0.47;0.30;;;;;;;;;;5015914;28;20444;-79
2023/03/11 01:37:26;;;;;;;0.80;0.73;;;;;;;;;;5016174;28;20490;-80
2023/03/11 01:39:53;;;;;;;0.50;0.30;;;;;;;;;;5015869;28;20455;-80
2023/03/11 01:42:20;;;;;;;1.80;0.97;;;;;;;;;;5016079;28;20829;-83
2023/03/11 01:44:47;;;;;;;3.37;0.70;;;;;;;;;;5015898;28;20951;-81
2023/03/11 01:47:44;;;;;;;2.50;1.97;;;1.50;99.90;;;;;;5014720;28;20796;-82
2023/03/11 01:50:13;;;;;;;1.33;1.03;;;1.50;99.90;;;;;;5015841;28;20463;-79
2023/03/11 01:52:43;;;;;;;4.30;1.00;;;1.50;99.90;;;;;;5015756;28;20982;-80
2023/03/11 01:55:11;;;;;;;0.50;0.40;;;;;;;;;;5015806;28;20471;-82
2023/03/11 01:57:40;;;;;;;0.43;0.33;;;1.40;99.90;;;;;;5015846;28;20548;-80
2023/03/11 02:00:09;;;;;;;1.90;0.80;;;;;;;;;;5015737;28;20456;-81
2023/03/11 02:02:41;;;;;;;1.90;0.80;;;1.40;99.90;;;;;;5014203;28;20498;-80
2023/03/11 02:05:08;;;;;;;1.50;0.90;;;;;;;;;;5016128;28;20448;-80
2023/03/11 02:07:38;;;;;;;1.30;0.87;;;1.30;99.90;;;;;;5015992;28;20456;-81
2023/03/11 02:10:06;;;;;;;3.23;1.07;;;;;;;;;;5015887;28;20448;-81
2023/03/11 02:12:35;;;;;;;1.23;0.50;;;;;;;;;;5015839;28;20448;-80
2023/03/11 02:15:04;;;;;;;1.17;0.80;;;1.40;99.90;;;;;;5015731;28;20452;-81
2023/03/11 02:17:31;;;;;;;1.03;0.80;;;;;;;;;;5014548;28;20452;-80
2023/03/11 02:20:11;;;;;;;1.20;0.80;;;1.40;99.90;;;;;;5015667;28;20444;-79
2023/03/11 02:22:40;;;;;;;1.37;0.90;;;;;;;;;;5015375;28;20496;-79
2023/03/11 02:25:15;;;;;;;0.60;0.60;;;1.30;99.90;;;;;;5015532;28;20475;-83
2023/03/11 02:27:47;;;;;;;1.17;1.07;;;1.30;99.90;;;;;;5015598;28;20448;-80
2023/03/11 02:30:15;;;;;;;0.50;0.50;;;1.30;99.90;;;;;;5015509;28;20460;-80
2023/03/11 02:32:46;;;;;;;1.37;0.90;;;1.20;99.90;;;;;;5014038;28;20447;-80
2023/03/11 02:35:13;;;;;;;0.50;0.50;;;;;;;;;;4981393;28;20491;-79
2023/03/11 02:37:44;;;;;;;1.00;0.63;;;;;;;;;;5015164;28;20452;-78
2023/03/11 02:40:41;;;;;;;0.50;0.40;;;1.20;99.90;;;;;;5015034;28;20492;-79
2023/03/11 02:43:13;;;;;;;2.90;1.10;;;1.20;99.90;;;;;;5015074;28;20496;-80
2023/03/11 02:45:41;;;;;;;0.70;0.60;;;1.10;99.90;;;;;;5015175;28;20458;-79
2023/03/11 02:48:10;;;;;;;1.00;0.77;;;1.10;99.90;;;;;;5013887;28;20452;-77
2023/03/11 02:50:38;;;;;;;2.20;1.47;;;;;;;;;;5014355;28;20520;-80
2023/03/11 02:53:05;;;;;;;1.03;0.80;;;0.90;99.90;;;;;;5014881;28;20465;-81
2023/03/11 02:55:33;;;;;;;0.70;0.50;;;;;;;;;;5015030;28;20452;-79
2023/03/11 02:58:00;;;;;;;0.83;0.50;;;;;;;;;;5014940;28;20939;-81
2023/03/11 03:00:28;;;;;;;3.33;0.60;;;;;;;;;;5014987;28;20542;-80
2023/03/11 03:02:55;;;;;;;1.90;1.23;;;;;;;;;;5013456;28;20492;-80
2023/03/11 03:05:23;;;;;;;0.60;0.40;;;;;;;;;;5014805;28;20527;-80
2023/03/11 03:07:50;;;;;;;0.40;0.40;;;;;;;;;;5014852;28;20548;-80
2023/03/11 03:10:18;;;;;;;0.80;0.67;;;0.50;99.90;;;;;;5014820;28;20798;-81
2023/03/11 03:12:45;;;;;;;3.50;0.70;;;;;;;;;;5014657;28;20558;-80
2023/03/11 03:15:14;;;;;;;1.00;0.57;;;;;;;;;;5014649;28;20452;-81
2023/03/11 03:17:43;;;;;;;0.50;0.50;;;;;;;;;;5013212;28;20459;-81
2023/03/11 03:20:12;;;;;;;0.83;0.83;;;;;;;;;;5014509;28;20460;-80
2023/03/11 03:22:39;;;;;;;0.60;0.40;;;;;;;;;;5014326;28;20499;-81
2023/03/11 03:25:06;;;;;;;2.60;1.20;;;;;;;;;;5014338;28;20482;-79
2023/03/11 03:27:34;;;;;;;2.70;0.50;;;;;;;;;;5014313;28;20457;-80
2023/03/11 03:30:01;;;;;;;1.70;1.03;;;;;;;;;;5014316;28;20451;-80
2023/03/11 03:32:28;;;;;;;1.50;0.83;;;;;;;;;;5013265;28;20456;-79
2023/03/11 03:34:57;;;;;;;0.83;0.70;;;0.30;99.90;;;;;;5014760;28;20451;-77
2023/03/11 03:37:25;;;;;;;0.70;0.50;;;;;;;;;;5019056;28;20990;-79
2023/03/11 03:39:52;;;;;;;1.93;0.53;;;;;;;;;;5015301;28;20449;-80
2023/03/11 03:42:19;;;;;;;2.23;0.60;;;;;;;;;;5014187;28;20487;-81
2023/03/11 03:44:46;;;;;;;1.17;0.60;;;;;;;;;;5014200;28;20450;-81
2023/03/11 03:47:13;;;;;;;1.07;0.70;;;;;;;;;;5012983;28;20451;-80
2023/03/11 03:49:40;;;;;;;0.60;0.53;;;;;;;;;;5013484;28;20448;-81
2023/03/11 03:52:09;;;;;;;6.20;1.00;;;;;;;;;;5014069;28;20459;-81
2023/03/11 03:54:36;;;;;;;0.70;0.37;;;;;;;;;;5014045;28;20452;-80
2023/03/11 03:57:03;;;;;;;5.90;0.50;;;;;;;;;;5013963;28;20452;-81
2023/03/11 03:59:30;;;;;;;0.80;0.30;;;;;;;;;;5014101;28;20448;-81
2023/03/11 04:01:57;;;;;;;1.13;0.73;;;;;;;;;;5013757;28;20462;-82
2023/03/11 04:04:24;;;;;;;1.33;0.67;;;;;;;;;;5012778;28;20454;-82
2023/03/11 04:06:52;;;;;;;0.60;0.40;;;;;;;;;;5013882;28;20455;-81
2023/03/11 04:09:20;;;;;;;0.67;0.50;;;;;;;;;;5013820;28;20814;-81
2023/03/11 04:11:47;;;;;;;0.70;0.60;;;;;;;;;;5013627;28;20455;-81
2023/03/11 04:14:14;;;;;;;0.50;0.50;;;;;;;;;;5013520;28;20452;-80
2023/03/11 04:16:42;;;;;;;0.50;0.50;;;;;;;;;;5013646;28;20455;-81
2023/03/11 04:19:09;;;;;;;0.60;0.60;;;;;;;;;;5012453;28;20450;-80
2023/03/11 04:21:36;;;;;;;0.40;0.30;;;;;;;;;;5013672;28;20453;-82
2023/03/11 04:24:03;;;;;;;0.50;0.40;;;;;;;;;;5013365;28;20495;-80
2023/03/11 04:26:31;;;;;;;0.60;0.53;;;;;;;;;;5013238;28;20448;-81
2023/03/11 04:28:59;;;;;;;3.17;0.50;;;;;;;;;;5013494;28;20459;-81
2023/03/11 04:31:26;;;;;;;0.60;0.60;;;;;;;;;;5013427;28;20450;-82
2023/03/11 04:33:53;;;;;;;0.40;0.20;;;;;;;;;;5012397;28;20460;-81
2023/03/11 04:36:20;;;;;;;2.50;1.10;;;;;;;;;;5013272;28;20460;-81
2023/03/11 04:38:47;;;;;;;5.13;1.00;;;;;;;;;;5013195;28;20460;-81
2023/03/11 04:41:14;;;;;;;0.40;0.40;;;;;;;;;;5013191;28;21018;-82
2023/03/11 04:43:43;;;;;;;0.60;0.40;;;;;;;;;;5013165;28;21015;-82
2023/03/11 04:46:10;;;;;;;1.33;1.00;;;;;;;;;;5013383;28;20936;-80
2023/03/11 04:48:37;;;;;;;0.80;0.80;;;;;;;;;;5012088;28;20459;-82
2023/03/11 04:51:04;;;;;;;2.20;1.00;;;;;;;;;;5013242;28;20459;-82
2023/03/11 04:53:31;;;;;;;9.57;2.10;;;;;;;;;;5013067;28;20456;-82
2023/03/11 04:55:58;;;;;;;0.70;0.40;;;;;;;;;;5013328;28;20463;-81
2023/03/11 04:58:26;;;;;;;0.40;0.30;;;;;;;;;;5013307;28;20452;-81
2023/03/11 05:00:55;;;;;;;0.80;0.67;;;;;;;;;;5012976;28;20455;-81
2023/03/11 05:03:22;;;;;;;0.40;0.30;;;;;;;;;;5014919;28;20533;-81
2023/03/11 05:05:51;;;;;;;1.47;0.90;;;;;;;;;;5017038;28;20456;-82
2023/03/11 05:08:18;;;;;;;2.03;1.23;;;;;;;;;;5017006;28;20982;-81
2023/03/11 05:10:45;;;;;;;1.63;0.77;;;;;;;;;;5016941;28;20455;-82
2023/03/11 05:13:12;;;;;;;0.90;0.50;;;;;;;;;;5016720;28;20456;-82
2023/03/11 05:15:40;;;;;;;0.40;0.30;;;;;;;;;;5016792;28;20800;-83
2023/03/11 05:18:09;;;;;;;1.33;0.70;;;;;;;;;;5015521;28;20506;-82
2023/03/11 05:20:36;;;;;;;2.77;0.97;;;;;;;;;;5016643;28;20447;-81
2023/03/11 05:23:03;;;;;;;3.77;0.57;;;;;;;;;;5016472;28;20487;-82
2023/03/11 05:25:30;;;;;;;2.70;0.90;;;;;;;;;;5016572;28;20997;-81
2023/03/11 05:27:57;;;;;;;1.40;0.83;;;;;;;;;;5016611;28;20447;-82
2023/03/11 05:30:24;;;;;;;2.33;0.70;;;;;;;;;;5016460;28;20445;-79
2023/03/11 05:32:51;;;;;;;2.20;0.60;;;;;;;;;;5015420;28;20459;-82
2023/03/11 05:35:20;;;;;;;0.80;0.60;;;;;;;;;;5016317;28;20458;-82
2023/03/11 05:37:48;;;;;;;0.63;0.57;;;;;;;;;;5016357;28;20507;-81
2023/03/11 05:40:16;;;;;;;0.60;0.53;;;-0.50;99.90;;;;;;5016240;28;20575;-81
2023/03/11 05:42:43;;;;;;;1.23;0.90;;;;;;;;;;5016218;28;20455;-82
2023/03/11 05:45:10;;;;;;;0.90;0.50;;;-0.30;99.90;;;;;;5016313;28;20456;-81
2023/03/11 05:47:37;;;;;;;2.40;1.10;;;;;;;;;;5014876;28;20452;-82
2023/03/11 05:50:05;;;;;;;5.40;1.73;;;-0.40;99.90;;;;;;5016245;28;20455;-82
2023/03/11 05:52:34;;;;;;;1.67;1.00;;;;;;;;;;5016183;28;20467;-82
2023/03/11 05:55:01;;;;;;;3.17;1.27;;;;;;;;;;5015735;28;20952;-82
2023/03/11 05:57:28;;;;;;;0.60;0.50;;;;;;;;;;5015755;28;20451;-82
2023/03/11 05:59:55;;;;;;;0.43;0.40;;;;;;;;;;5015607;28;20441;-82
2023/03/11 06:02:23;;;;;;;1.50;0.80;;;;;;;;;;5013349;28;20538;-82
2023/03/11 06:04:50;;;;;;;0.60;0.40;;;;;;;;;;5015511;28;20562;-81
2023/03/11 06:07:17;;;;;;;1.70;0.60;;;;;;;;;;5015794;28;20456;-81
2023/03/11 06:09:45;;;;;;;0.77;0.47;;;-0.60;99.90;;;;;;5015856;28;20451;-81
2023/03/11 06:12:12;;;;;;;3.17;0.70;;;;;;;;;;5015898;28;20445;-81
2023/03/11 06:14:39;;;;;;;1.87;0.67;;;;;;;;;;5015258;28;20460;-82
2023/03/11 06:17:06;;;;;;;0.63;0.63;;;;;;;;;;5015112;28;20449;-81
2023/03/11 06:19:33;;;;;;;4.00;1.13;;;;;;;;;;5015085;28;20444;-81
2023/03/11 06:22:00;;;;;;;0.50;0.40;;;;;;;;;;5015558;28;20459;-81
2023/03/11 06:24:27;;;;;;;1.50;1.03;;;;;;;;;;5015434;28;20523;-81
2023/03/11 06:26:55;;;;;;;6.00;1.23;;;0.20;99.90;;;;;;5015565;28;20475;-80
2023/03/11 06:29:25;;;;;;;5.20;3.00;;;;;;;;;;5015358;28;20452;-81
2023/03/11 06:31:52;;;;;;;3.33;2.27;;;;;;;;;;5015469;28;20452;-80
2023/03/11 06:34:19;;;;;;;0.60;0.40;;;;;;;;;;5014153;28;20785;-80
2023/03/11 06:36:46;;;;;;;5.30;1.17;;;;;;;;;;5015162;28;20932;-80
2023/03/11 06:39:14;;;;;;;2.10;1.63;;;0.40;99.90;;;;;;5015319;28;20815;-80
2023/03/11 06:41:41;;;;;;;7.17;2.60;;;;;;;;;;5014761;28;20480;-80
2023/03/11 06:44:10;;;;;;;5.90;1.73;;;0.40;99.90;;;;;;5014937;28;20491;-81
2023/03/11 06:46:37;;;;;;;5.70;2.37;;;;;;;;;;5015119;28;20944;-80
2023/03/11 06:49:04;;;;;;;1.20;0.70;;;;;;;;;;5013998;28;20944;-80
2023/03/11 06:51:32;;;;;;;3.03;1.20;;;;;;;;;;5014977;28;20455;-80
2023/03/11 06:53:59;;;;;;;6.57;2.70;;;;;;;;;;5014927;28;20886;-80
2023/03/11 06:56:26;;;;;;;1.80;1.20;;;;;;;;;;5014797;28;20940;-80
2023/03/11 06:58:53;;;;;;;2.77;1.17;;;0.80;99.90;;;;;;5014705;28;20452;-80
2023/03/11 07:01:23;;;;;;;7.20;2.50;;;0.90;99.90;;;;;;5014869;28;20456;-81
2023/03/11 07:03:51;;;;;;;3.00;1.90;;;1.10;99.90;;;;;;5013543;28;20855;-81
2023/03/11 07:06:21;;;;;;;2.83;1.07;;;1.20;99.90;;;;;;5014729;28;20452;-81
2023/03/11 07:08:50;;;;;;;3.10;1.40;;;1.60;99.90;;;;;;5014615;28;20444;-81
2023/03/11 07:11:18;;;;;;;2.60;1.83;;;1.80;99.90;;;;;;5014487;28;20460;-79
2023/03/11 07:13:46;;;;;;;0.60;0.60;;;;;;;;;;5014611;28;20444;-81
2023/03/11 07:16:15;;;;;;;1.50;0.37;;;1.80;99.90;;;;;;5014559;28;20797;-80
2023/03/11 07:18:45;;;;;;;8.63;0.90;;;1.90;99.90;;;;;;5013289;28;20450;-80
2023/03/11 07:21:14;;;;;;;16.90;1.87;;;2.40;99.90;;;;;;5014484;28;20456;-81
2023/03/11 07:23:41;;;;;;;2.30;1.23;;;;;;;;;;5014160;28;20523;-82
2023/03/11 07:26:09;;;;;;;2.53;0.97;;;;;;;;;;5013519;28;20463;-80
2023/03/11 07:28:37;;;;;;;2.67;1.07;;;;;;;;;;5014300;28;20518;-81
2023/03/11 07:31:07;;;;;;;2.37;0.80;;;;;;;;;;5014295;28;20448;-80
2023/03/11 07:33:34;;;;;;;0.43;0.33;;;;;;;;;;5013074;28;20448;-81
2023/03/11 07:36:06;;;;;;;6.53;1.47;;;;;;;;;;5014133;28;20452;-80
2023/03/11 07:38:33;;;;;;;0.90;0.77;;;;;;;;;;5014113;28;20452;-80
2023/03/11 07:41:00;;;;;;;2.30;0.93;;;;;;;;;;5014028;28;20472;-79
2023/03/11 07:43:27;;;;;;;3.70;0.83;;;;;;;;;;5013989;28;20495;-80
2023/03/11 07:46:02;;;;;;;0.60;0.47;;;;;;;;;;5014192;28;20456;-80
2023/03/11 07:48:29;;;;;;;2.97;1.20;;;;;;;;;;5012421;28;20445;-80
2023/03/11 07:51:00;;;;;;;2.80;0.80;;;;;;;;;;5013774;28;20933;-79
2023/03/11 07:53:28;;;;;;;0.77;0.63;;;;;;;;;;5013851;28;20467;-79
2023/03/11 07:55:56;;;;;;;5.40;2.70;;;;;;;;;;5013810;28;20943;-79
2023/03/11 07:58:23;;;;;;;3.57;2.47;;;;;;;;;;5013791;28;20459;-79
2023/03/11 08:00:50;;;;;;;1.80;0.90;;;;;;;;;;5013735;28;20451;-79
2023/03/11 08:03:17;;;;;;;173.00;74.10;;;;;;;;;;5012306;28;20448;-78
2023/03/11 08:05:45;;;;;;;76.33;44.57;;;;;;;;;;5013616;28;20967;-79
2023/03/11 08:08:12;;;;;;;1.87;1.20;;;;;;;;;;5013843;28;20464;-79
2023/03/11 08:10:40;;;;;;;16.07;14.67;;;;;;;;;;5013490;28;20452;-78
2023/03/11 08:13:07;;;;;;;10.67;9.73;;;;;;;;;;5013478;28;20459;-77
2023/03/11 08:15:34;;;;;;;2.80;2.57;;;;;;;;;;5013383;28;20980;-78
2023/03/11 08:18:01;;;;;;;77.80;47.70;;;;;;;;;;5012236;28;20457;-78
2023/03/11 08:20:29;;;;;;;95.13;49.90;;;;;;;;;;5013441;28;20467;-78
2023/03/11 08:22:56;;;;;;;175.27;72.20;;;;;;;;;;5013282;28;21065;-77
2023/03/11 08:25:23;;;;;;;173.70;69.50;;;;;;;;;;5013327;28;20511;-78
2023/03/11 08:27:51;;;;;;;175.40;71.17;;;;;;;;;;5013305;28;20452;-77
2023/03/11 08:30:18;;;;;;;166.40;70.00;;;;;;;;;;5013288;28;20763;-78
2023/03/11 08:32:45;;;;;;;181.77;72.60;;;;;;;;;;5012127;28;20427;-78
2023/03/11 08:35:13;;;;;;;43.53;30.90;;;;;;;;;;5013373;28;20426;-79
2023/03/11 08:37:40;;;;;;;139.83;56.03;;;;;;;;;;5013055;28;20449;-78
2023/03/11 08:40:09;;;;;;;160.83;67.30;;;;;;;;;;5013097;28;20486;-78
2023/03/11 08:42:36;;;;;;;1.83;1.57;;;;;;;;;;5013138;28;20444;-78
2023/03/11 19:31:11;;;;;;;8.80;2.70;;;;;;;;;;5090327;28;20609;-79
2023/03/11 19:33:38;;;;;;;7.87;4.23;;;;;;;;;;5088118;28;20441;-79
2023/03/11 19:36:07;;;;;;;13.27;6.27;;;;;;;;;;5084476;28;20465;-77
2023/03/11 19:38:34;;;;;;;9.03;4.53;;;;;;;;;;5049694;28;20521;-77
2023/03/11 19:41:03;;;;;;;9.20;3.90;;;1.00;99.90;;;;;;5049629;28;20541;-77
2023/03/11 19:43:31;;;;;;;12.10;5.57;;;;;;;;;;5030981;28;20446;-78
2023/03/11 19:45:58;;;;;;;11.03;5.87;;;;;;;;;;5049033;28;20445;-77
2023/03/11 19:48:26;;;;;;;10.00;6.10;;;;;;;;;;5048043;28;20443;-76
2023/03/11 19:50:54;;;;;;;10.90;5.70;;;;;;;;;;5049350;28;20490;-77
2023/03/11 19:53:22;;;;;;;18.80;7.83;;;0.60;99.90;;;;;;5049315;28;20819;-78
2023/03/11 19:55:52;;;;;;;8.67;5.70;;;0.50;99.90;;;;;;5049553;28;20451;-78
2023/03/11 19:58:19;;;;;;;11.37;6.23;;;;;;;;;;5049449;28;20454;-78
2023/03/11 20:00:46;;;;;;;10.80;5.33;;;;;;;;;;5048978;28;20442;-76
2023/03/11 20:03:14;;;;;;;9.27;4.60;;;0.40;99.90;;;;;;5048198;28;20473;-77
2023/03/11 20:05:44;;;;;;;6.87;4.50;;;0.50;99.90;;;;;;5049442;28;20457;-78
2023/03/11 20:08:13;;;;;;;9.43;5.07;;;0.60;99.90;;;;;;5049325;28;20442;-76
2023/03/11 20:10:41;;;;;;;9.37;5.60;;;0.50;99.90;;;;;;5049199;28;20494;-78
2023/03/11 20:13:09;;;;;;;11.30;6.37;;;;;;;;;;5048999;28;20521;-80
2023/03/11 20:15:37;;;;;;;12.47;6.80;;;0.50;99.90;;;;;;5048158;28;20439;-77
2023/03/11 20:18:05;;;;;;;22.63;8.30;;;;;;;;;;5047776;28;20825;-77
2023/03/11 20:20:32;;;;;;;18.07;7.37;;;0.40;99.90;;;;;;5049166;28;20542;-79
2023/03/11 20:23:01;;;;;;;10.90;6.20;;;0.30;99.90;;;;;;5046863;28;20455;-80
2023/03/11 20:25:31;;;;;;;13.13;6.00;;;;;;;;;;5048949;28;20504;-78
2023/03/11 20:27:58;;;;;;;13.93;5.60;;;0.30;99.90;;;;;;5049236;28;20550;-80
2023/03/11 20:30:25;;;;;;;4.93;3.90;;;;;;;;;;5048691;28;20502;-79
2023/03/11 20:32:53;;;;;;;8.60;4.73;;;;;;;;;;5047946;28;20823;-79
2023/03/11 20:35:20;;;;;;;11.03;5.57;;;0.10;99.90;;;;;;5049101;28;20543;-80
2023/03/11 20:37:47;;;;;;;8.37;5.47;;;;;;;;;;5048668;28;20470;-79
2023/03/11 20:40:16;;;;;;;8.23;4.73;;;0.00;99.90;;;;;;5048753;28;20447;-80
2023/03/11 20:42:45;;;;;;;7.00;4.83;;;;;;;;;;5035102;28;20815;-79
2023/03/11 20:45:13;;;;;;;7.57;4.50;;;-0.20;99.90;;;;;;5034890;28;20491;-79
2023/03/11 20:47:42;;;;;;;9.43;5.20;;;;;;;;;;5031643;28;20455;-77
2023/03/11 20:50:10;;;;;;;8.33;3.50;;;0.00;99.90;;;;;;5035507;28;20581;-77
2023/03/11 20:52:37;;;;;;;7.93;4.00;;;;;;;;;;5035185;28;20815;-77
2023/03/11 20:55:07;;;;;;;5.00;2.47;;;0.00;99.90;;;;;;5035021;28;20454;-78
2023/03/11 20:57:35;;;;;;;4.30;2.43;;;;;;;;;;5034575;28;20486;-77
2023/03/11 21:00:03;;;;;;;4.90;2.37;;;;;;;;;;5034220;28;20460;-77
2023/03/11 21:02:32;;;;;;;5.70;2.50;;;;;;;;;;5033734;28;20579;-80
2023/03/11 21:04:59;;;;;;;4.63;2.57;;;;;;;;;;5033813;28;20514;-81
2023/03/11 21:07:26;;;;;;;2.93;2.10;;;;;;;;;;5034991;28;20454;-76
2023/03/11 21:09:56;;;;;;;3.30;2.30;;;;;;;;;;5034346;28;20487;-77
2023/03/11 21:12:23;;;;;;;4.53;2.90;;;;;;;;;;5034410;28;20455;-77
2023/03/11 21:14:51;;;;;;;4.00;3.03;;;-0.40;99.90;;;;;;5034209;28;20451;-77
2023/03/11 21:17:18;;;;;;;4.60;3.00;;;;;;;;;;5033906;28;20448;-78
2023/03/11 21:19:45;;;;;;;6.40;3.00;;;;;;;;;;5034366;28;20455;-77
2023/03/11 21:22:12;;;;;;;4.63;2.80;;;;;;;;;;5034347;28;20450;-77
2023/03/11 21:24:39;;;;;;;4.83;3.30;;;;;;;;;;5034435;28;20938;-77
2023/03/11 21:27:06;;;;;;;5.10;3.10;;;;;;;;;;5034388;28;20943;-77
2023/03/11 21:29:33;;;;;;;6.80;3.00;;;;;;;;;;5033749;28;20475;-78
2023/03/11 21:32:02;;;;;;;7.37;2.47;;;-0.30;99.90;;;;;;5034444;28;20470;-77
2023/03/11 21:34:29;;;;;;;8.50;2.73;;;;;;;;;;5033162;28;20533;-77
2023/03/11 21:36:56;;;;;;;3.97;2.80;;;;;;;;;;5033849;28;20468;-76
2023/03/11 21:39:23;;;;;;;3.13;2.10;;;;;;;;;;5034124;28;20455;-78
2023/03/11 21:41:52;;;;;;;3.53;2.30;;;;;;;;;;5033562;28;20452;-77
2023/03/11 21:44:19;;;;;;;2.50;1.80;;;;;;;;;;5034354;28;20874;-77
2023/03/11 21:46:46;;;;;;;2.90;2.13;;;;;;;;;;5033953;28;20534;-78
2023/03/11 21:49:14;;;;;;;4.73;2.40;;;;;;;;;;5032872;28;20455;-77
2023/03/11 21:51:41;;;;;;;4.00;2.73;;;;;;;;;;5032033;28;20953;-78
2023/03/11 21:54:09;;;;;;;4.07;1.63;;;;;;;;;;5033146;28;20448;-76
2023/03/11 21:56:36;;;;;;;6.03;2.00;;;;;;;;;;5033934;28;20489;-79
2023/03/11 21:59:03;;;;;;;5.70;2.23;;;;;;;;;;5033886;28;20459;-77
2023/03/11 22:01:31;;;;;;;3.37;1.97;;;;;;;;;;5033745;28;20456;-77
2023/03/11 22:03:58;;;;;;;3.73;2.50;;;;;;;;;;5032495;28;20502;-79
2023/03/11 22:06:26;;;;;;;3.93;1.93;;;-0.80;99.90;;;;;;5033966;28;20455;-79
2023/03/11 22:08:53;;;;;;;4.00;2.30;;;;;;;;;;5033845;28;20454;-77
2023/03/11 22:11:20;;;;;;;3.90;2.33;;;;;;;;;;5033742;28;20491;-81
2023/03/11 22:13:49;;;;;;;7.60;2.60;;;-1.00;99.90;;;;;;5033528;28;20451;-79
2023/03/11 22:16:17;;;;;;;3.93;1.50;;;-0.90;99.90;;;;;;5033720;28;20479;-78
2023/03/11 22:18:45;;;;;;;7.53;2.40;;;;;;;;;;5032325;28;20447;-78
2023/03/11 22:21:13;;;;;;;3.10;2.10;;;;;;;;;;5033565;28;20443;-80
2023/03/11 22:23:42;;;;;;;3.70;2.00;;;;;;;;;;5033519;28;20457;-76
2023/03/11 22:26:09;;;;;;;2.50;2.03;;;;;;;;;;5033403;28;20448;-78
2023/03/11 22:28:37;;;;;;;4.67;2.43;;;;;;;;;;5033330;28;20784;-77
2023/03/11 22:31:06;;;;;;;3.40;1.90;;;-1.00;99.90;;;;;;5032995;28;21022;-76
2023/03/11 22:33:34;;;;;;;3.53;2.23;;;;;;;;;;5032048;28;20451;-76
2023/03/11 22:36:03;;;;;;;3.40;1.90;;;;;;;;;;5032998;28;20471;-76
2023/03/11 22:38:30;;;;;;;7.60;2.43;;;;;;;;;;5033234;28;20461;-77
2023/03/11 22:40:59;;;;;;;3.47;2.40;;;-1.00;99.90;;;;;;5033254;28;20462;-76
2023/03/11 22:43:26;;;;;;;4.03;2.47;;;;;;;;;;5032894;28;20817;-76
2023/03/11 22:45:53;;;;;;;6.17;2.97;;;;;;;;;;5032342;28;20828;-78
2023/03/11 22:48:21;;;;;;;6.90;2.70;;;;;;;;;;5031542;28;20447;-79
2023/03/11 22:50:48;;;;;;;4.30;2.77;;;;;;;;;;5032227;28;20541;-77
2023/03/11 22:53:16;;;;;;;2.90;2.13;;;;;;;;;;5032874;28;20452;-76
2023/03/11 22:55:44;;;;;;;2.80;1.90;;;-1.10;99.90;;;;;;5032721;28;20501;-76
2023/03/11 22:58:12;;;;;;;2.20;2.00;;;-1.20;99.90;;;;;;5032529;28;20825;-75
2023/03/11 23:00:39;;;;;;;3.00;1.93;;;;;;;;;;5032530;28;20973;-75
2023/03/11 23:03:07;;;;;;;4.80;2.30;;;;;;;;;;5031482;28;20454;-76
2023/03/11 23:05:40;;;;;;;2.70;2.13;;;;;;;;;;5032440;28;20443;-75
2023/03/11 23:08:07;;;;;;;3.60;1.97;;;;;;;;;;5032650;28;20448;-75
2023/03/11 23:10:35;;;;;;;3.30;1.90;;;;;;;;;;5032512;28;20494;-75
2023/03/11 23:13:02;;;;;;;3.80;2.07;;;;;;;;;;5032375;28;20962;-77
2023/03/11 23:15:30;;;;;;;2.30;1.50;;;;;;;;;;5032646;28;20462;-76
2023/03/11 23:17:57;;;;;;;5.50;2.10;;;;;;;;;;5031276;28;20537;-77
2023/03/11 23:20:24;;;;;;;6.03;2.57;;;;;;;;;;5032752;28;20444;-78
2023/03/11 23:22:52;;;;;;;6.50;2.70;;;;;;;;;;5032865;28;20446;-80
2023/03/11 23:25:19;;;;;;;9.00;3.40;;;;;;;;;;5030681;28;20816;-78
2023/03/11 23:27:46;;;;;;;4.90;2.30;;;;;;;;;;5032632;28;20448;-78
2023/03/11 23:30:15;;;;;;;11.00;3.40;;;-1.40;99.90;;;;;;5032460;28;20505;-79
2023/03/11 23:32:43;;;;;;;6.77;3.03;;;-1.40;99.90;;;;;;5031495;28;20453;-78
2023/03/11 23:35:11;;;;;;;6.23;3.00;;;;;;;;;;5032623;28;20514;-78
2023/03/11 23:37:38;;;;;;;10.70;3.47;;;;;;;;;;5032684;28;20454;-78
2023/03/11 23:40:05;;;;;;;4.07;2.63;;;;;;;;;;5031922;28;20439;-79
2023/03/11 23:42:33;;;;;;;6.30;2.87;;;;;;;;;;5032608;28;20443;-78
2023/03/11 23:45:00;;;;;;;10.97;3.87;;;;;;;;;;5032657;28;20459;-78
2023/03/11 23:47:27;;;;;;;8.17;2.77;;;;;;;;;;5031405;28;20455;-77
2023/03/11 23:49:56;;;;;;;8.53;3.33;;;;;;;;;;5032679;28;20455;-78
2023/03/11 23:52:23;;;;;;;4.47;2.97;;;;;;;;;;5032408;28;20503;-79
2023/03/11 23:54:50;;;;;;;6.40;3.37;;;;;;;;;;5032283;28;20946;-78
2023/03/11 23:57:17;;;;;;;4.33;2.67;;;;;;;;;;5032648;28;20456;-78
2023/03/11 23:59:44;;;;;;;5.50;3.20;;;;;;;;;;5032565;28;20456;-79
